sensor_id;sensor_type;location;lat;lon;timestamp;pressure;altitude;pressure_sealevel;temperature;humidity
64080;BME280;51042;49.696;10.808;2023-07-31T00:02:14;98377.75;;;15.83;91.18
64080;BME280;51042;49.696;10.808;2023-07-31T00:04:39;98374.31;;;15.88;91.10
64080;BME280;51042;49.696;10.808;2023-07-31T00:07:04;98369.88;;;15.90;90.78
64080;BME280;51042;49.696;10.808;2023-07-31T00:09:31;98371.22;;;15.95;90.70
64080;BME280;51042;49.696;10.808;2023-07-31T00:11:56;98367.47;;;15.98;90.76
64080;BME280;51042;49.696;10.808;2023-07-31T00:14:21;98370.56;;;16.00;90.40
64080;BME280;51042;49.696;10.808;2023-07-31T00:16:46;98371.63;;;16.03;90.70
64080;BME280;51042;49.696;10.808;2023-07-31T00:19:12;98362.06;;;16.04;90.25
64080;BME280;51042;49.696;10.808;2023-07-31T00:21:37;98368.66;;;16.06;90.89
64080;BME280;51042;49.696;10.808;2023-07-31T00:24:02;98362.38;;;16.06;90.75
64080;BME280;51042;49.696;10.808;2023-07-31T00:26:27;98370.66;;;16.06;90.81
64080;BME280;51042;49.696;10.808;2023-07-31T00:28:52;98365.13;;;16.06;90.91
64080;BME280;51042;49.696;10.808;2023-07-31T00:31:17;98369.72;;;16.09;90.73
64080;BME280;51042;49.696;10.808;2023-07-31T00:33:43;98373.84;;;16.13;90.73
64080;BME280;51042;49.696;10.808;2023-07-31T00:36:08;98361.53;;;16.14;90.50
64080;BME280;51042;49.696;10.808;2023-07-31T00:38:33;98358.56;;;16.18;90.90
64080;BME280;51042;49.696;10.808;2023-07-31T00:40:58;98364.41;;;16.20;91.52
64080;BME280;51042;49.696;10.808;2023-07-31T00:43:24;98363.16;;;16.21;91.82
64080;BME280;51042;49.696;10.808;2023-07-31T00:45:49;98363.16;;;16.21;91.58
64080;BME280;51042;49.696;10.808;2023-07-31T00:48:15;98361.16;;;16.21;91.41
64080;BME280;51042;49.696;10.808;2023-07-31T00:50:40;98370.53;;;16.24;91.62
64080;BME280;51042;49.696;10.808;2023-07-31T00:53:06;98365.28;;;16.26;91.32
64080;BME280;51042;49.696;10.808;2023-07-31T00:55:31;98361.47;;;16.23;91.24
64080;BME280;51042;49.696;10.808;2023-07-31T00:57:56;98367.00;;;16.23;90.55
64080;BME280;51042;49.696;10.808;2023-07-31T01:00:21;98361.91;;;16.22;91.06
64080;BME280;51042;49.696;10.808;2023-07-31T01:02:47;98358.13;;;16.19;91.22
64080;BME280;51042;49.696;10.808;2023-07-31T01:05:13;98351.34;;;16.20;91.52
64080;BME280;51042;49.696;10.808;2023-07-31T01:08:03;98353.34;;;16.20;91.15
64080;BME280;51042;49.696;10.808;2023-07-31T01:10:24;98344.72;;;16.18;91.69
64080;BME280;51042;49.696;10.808;2023-07-31T01:12:51;98346.75;;;16.17;91.69
64080;BME280;51042;49.696;10.808;2023-07-31T01:15:18;98351.50;;;16.17;91.44
64080;BME280;51042;49.696;10.808;2023-07-31T01:17:43;98351.03;;;16.18;91.52
64080;BME280;51042;49.696;10.808;2023-07-31T01:20:18;98347.03;;;16.19;91.13
64080;BME280;51042;49.696;10.808;2023-07-31T01:22:49;98348.28;;;16.18;91.67
64080;BME280;51042;49.696;10.808;2023-07-31T01:28:04;98350.84;;;16.22;91.65
64080;BME280;51042;49.696;10.808;2023-07-31T01:30:32;98343.03;;;16.20;91.71
64080;BME280;51042;49.696;10.808;2023-07-31T01:33:00;98347.31;;;16.21;92.48
64080;BME280;51042;49.696;10.808;2023-07-31T01:35:28;98338.53;;;16.23;92.17
64080;BME280;51042;49.696;10.808;2023-07-31T01:37:54;98332.53;;;16.24;91.73
64080;BME280;51042;49.696;10.808;2023-07-31T01:40:19;98327.75;;;16.25;91.45
64080;BME280;51042;49.696;10.808;2023-07-31T01:42:44;98323.44;;;16.24;91.97
64080;BME280;51042;49.696;10.808;2023-07-31T01:45:09;98326.22;;;16.24;91.69
64080;BME280;51042;49.696;10.808;2023-07-31T01:47:35;98317.63;;;16.22;91.97
64080;BME280;51042;49.696;10.808;2023-07-31T01:50:00;98318.13;;;16.20;92.29
64080;BME280;51042;49.696;10.808;2023-07-31T01:52:25;98317.34;;;16.20;92.20
64080;BME280;51042;49.696;10.808;2023-07-31T01:54:50;98322.38;;;16.21;92.08
64080;BME280;51042;49.696;10.808;2023-07-31T01:57:15;98307.78;;;16.21;92.13
64080;BME280;51042;49.696;10.808;2023-07-31T01:59:41;98296.22;;;16.22;92.22
64080;BME280;51042;49.696;10.808;2023-07-31T02:02:06;98293.94;;;16.21;92.16
64080;BME280;51042;49.696;10.808;2023-07-31T02:04:31;98309.03;;;16.20;91.87
64080;BME280;51042;49.696;10.808;2023-07-31T02:06:56;98295.66;;;16.18;91.87
64080;BME280;51042;49.696;10.808;2023-07-31T02:09:21;98289.56;;;16.14;92.82
64080;BME280;51042;49.696;10.808;2023-07-31T02:11:46;98277.13;;;16.10;92.98
64080;BME280;51042;49.696;10.808;2023-07-31T02:14:12;98281.88;;;16.09;93.48
64080;BME280;51042;49.696;10.808;2023-07-31T02:16:37;98282.66;;;16.10;93.68
64080;BME280;51042;49.696;10.808;2023-07-31T02:19:02;98283.41;;;16.10;93.64
64080;BME280;51042;49.696;10.808;2023-07-31T02:21:27;98282.19;;;16.11;93.63
64080;BME280;51042;49.696;10.808;2023-07-31T02:23:52;98278.47;;;16.14;93.84
64080;BME280;51042;49.696;10.808;2023-07-31T02:26:17;98281.53;;;16.16;93.61
64080;BME280;51042;49.696;10.808;2023-07-31T02:28:43;98276.28;;;16.18;93.63
64080;BME280;51042;49.696;10.808;2023-07-31T02:31:08;98276.56;;;16.20;93.35
64080;BME280;51042;49.696;10.808;2023-07-31T02:33:33;98277.31;;;16.21;93.07
64080;BME280;51042;49.696;10.808;2023-07-31T02:35:58;98275.31;;;16.21;92.90
64080;BME280;51042;49.696;10.808;2023-07-31T02:38:23;98277.16;;;16.24;92.53
64080;BME280;51042;49.696;10.808;2023-07-31T02:40:49;98271.13;;;16.26;92.33
64080;BME280;51042;49.696;10.808;2023-07-31T02:43:14;98280.22;;;16.26;92.63
64080;BME280;51042;49.696;10.808;2023-07-31T02:45:39;98271.91;;;16.26;92.46
64080;BME280;51042;49.696;10.808;2023-07-31T02:48:04;98271.41;;;16.28;92.36
64080;BME280;51042;49.696;10.808;2023-07-31T02:50:29;98277.44;;;16.26;91.86
64080;BME280;51042;49.696;10.808;2023-07-31T02:52:55;98276.19;;;16.27;91.64
64080;BME280;51042;49.696;10.808;2023-07-31T02:55:20;98271.41;;;16.28;91.64
64080;BME280;51042;49.696;10.808;2023-07-31T02:57:45;98272.00;;;16.32;91.28
64080;BME280;51042;49.696;10.808;2023-07-31T03:00:10;98279.53;;;16.31;91.12
64080;BME280;51042;49.696;10.808;2023-07-31T03:02:35;98279.03;;;16.33;90.83
64080;BME280;51042;49.696;10.808;2023-07-31T03:05:01;98265.19;;;16.33;90.48
64080;BME280;51042;49.696;10.808;2023-07-31T03:07:26;98262.72;;;16.35;90.27
64080;BME280;51042;49.696;10.808;2023-07-31T03:09:51;98265.78;;;16.37;90.09
64080;BME280;51042;49.696;10.808;2023-07-31T03:12:16;98266.56;;;16.38;89.62
64080;BME280;51042;49.696;10.808;2023-07-31T03:14:41;98256.25;;;16.38;89.65
64080;BME280;51042;49.696;10.808;2023-07-31T03:17:06;98254.97;;;16.39;89.30
64080;BME280;51042;49.696;10.808;2023-07-31T03:19:32;98260.53;;;16.39;88.92
64080;BME280;51042;49.696;10.808;2023-07-31T03:21:57;98260.53;;;16.39;88.86
64080;BME280;51042;49.696;10.808;2023-07-31T03:24:22;98260.81;;;16.41;88.88
64080;BME280;51042;49.696;10.808;2023-07-31T03:26:48;98254.50;;;16.41;89.05
64080;BME280;51042;49.696;10.808;2023-07-31T03:29:13;98261.78;;;16.38;88.62
64080;BME280;51042;49.696;10.808;2023-07-31T03:31:38;98263.78;;;16.38;89.33
64080;BME280;51042;49.696;10.808;2023-07-31T03:34:03;98260.72;;;16.36;89.28
64080;BME280;51042;49.696;10.808;2023-07-31T03:36:28;98264.47;;;16.32;89.60
64080;BME280;51042;49.696;10.808;2023-07-31T03:38:54;98261.41;;;16.30;89.87
64080;BME280;51042;49.696;10.808;2023-07-31T03:41:19;98262.34;;;16.27;89.69
64080;BME280;51042;49.696;10.808;2023-07-31T03:43:46;98260.53;;;16.24;90.11
64080;BME280;51042;49.696;10.808;2023-07-31T03:46:11;98257.47;;;16.22;90.32
64080;BME280;51042;49.696;10.808;2023-07-31T03:48:36;98254.13;;;16.18;89.86
64080;BME280;51042;49.696;10.808;2023-07-31T03:51:01;98257.38;;;16.17;90.35
64080;BME280;51042;49.696;10.808;2023-07-31T03:53:26;98257.56;;;16.13;90.76
64080;BME280;51042;49.696;10.808;2023-07-31T03:55:52;98250.97;;;16.11;90.66
64080;BME280;51042;49.696;10.808;2023-07-31T03:58:17;98248.66;;;16.09;90.72
64080;BME280;51042;49.696;10.808;2023-07-31T04:00:42;98252.50;;;16.12;90.42
64080;BME280;51042;49.696;10.808;2023-07-31T04:03:10;98259.84;;;16.15;90.54
64080;BME280;51042;49.696;10.808;2023-07-31T04:05:37;98251.38;;;16.18;90.05
64080;BME280;51042;49.696;10.808;2023-07-31T04:08:02;98257.66;;;16.19;90.10
64080;BME280;51042;49.696;10.808;2023-07-31T04:10:28;98254.91;;;16.19;89.85
64080;BME280;51042;49.696;10.808;2023-07-31T04:12:53;98253.84;;;16.16;90.18
64080;BME280;51042;49.696;10.808;2023-07-31T04:15:18;98252.31;;;16.15;90.17
64080;BME280;51042;49.696;10.808;2023-07-31T04:17:43;98244.75;;;16.16;90.42
64080;BME280;51042;49.696;10.808;2023-07-31T04:20:09;98249.81;;;16.17;90.68
64080;BME280;51042;49.696;10.808;2023-07-31T04:22:34;98249.00;;;16.26;90.56
64080;BME280;51042;49.696;10.808;2023-07-31T04:24:59;98252.31;;;16.30;90.08
64080;BME280;51042;49.696;10.808;2023-07-31T04:27:25;98250.13;;;16.34;89.75
64080;BME280;51042;49.696;10.808;2023-07-31T04:29:50;98247.34;;;16.34;89.55
64080;BME280;51042;49.696;10.808;2023-07-31T04:32:15;98250.41;;;16.36;89.75
64080;BME280;51042;49.696;10.808;2023-07-31T04:34:41;98242.88;;;16.37;89.42
64080;BME280;51042;49.696;10.808;2023-07-31T04:37:06;98234.28;;;16.34;89.67
64080;BME280;51042;49.696;10.808;2023-07-31T04:39:32;98249.66;;;16.36;90.12
64080;BME280;51042;49.696;10.808;2023-07-31T04:41:57;98246.13;;;16.35;90.50
64080;BME280;51042;49.696;10.808;2023-07-31T04:44:22;98238.56;;;16.36;90.68
64080;BME280;51042;49.696;10.808;2023-07-31T04:46:47;98243.63;;;16.37;90.20
64080;BME280;51042;49.696;10.808;2023-07-31T04:49:12;98236.88;;;16.38;90.15
64080;BME280;51042;49.696;10.808;2023-07-31T04:51:37;98241.53;;;16.47;89.92
64080;BME280;51042;49.696;10.808;2023-07-31T04:54:03;98250.00;;;16.58;88.97
64080;BME280;51042;49.696;10.808;2023-07-31T04:56:28;98243.66;;;16.66;89.13
64080;BME280;51042;49.696;10.808;2023-07-31T04:58:53;98247.34;;;16.78;87.30
64080;BME280;51042;49.696;10.808;2023-07-31T05:01:18;98250.84;;;16.93;86.65
64080;BME280;51042;49.696;10.808;2023-07-31T05:03:44;98255.81;;;17.04;86.21
64080;BME280;51042;49.696;10.808;2023-07-31T05:06:09;98248.81;;;17.08;85.76
64080;BME280;51042;49.696;10.808;2023-07-31T05:08:34;98256.28;;;17.02;86.00
64080;BME280;51042;49.696;10.808;2023-07-31T05:10:59;98257.25;;;16.99;86.41
64080;BME280;51042;49.696;10.808;2023-07-31T05:13:25;98253.22;;;17.00;86.25
64080;BME280;51042;49.696;10.808;2023-07-31T05:15:50;98263.38;;;17.03;86.44
64080;BME280;51042;49.696;10.808;2023-07-31T05:18:15;98260.09;;;17.05;86.19
64080;BME280;51042;49.696;10.808;2023-07-31T05:20:40;98256.47;;;16.99;85.75
64080;BME280;51042;49.696;10.808;2023-07-31T05:23:06;98246.06;;;16.94;85.75
64080;BME280;51042;49.696;10.808;2023-07-31T05:25:31;98251.34;;;16.92;85.67
64080;BME280;51042;49.696;10.808;2023-07-31T05:27:56;98247.91;;;16.97;86.39
64080;BME280;51042;49.696;10.808;2023-07-31T05:30:21;98262.59;;;17.03;86.49
64080;BME280;51042;49.696;10.808;2023-07-31T05:32:46;98247.75;;;17.06;84.84
64080;BME280;51042;49.696;10.808;2023-07-31T05:35:11;98257.41;;;17.10;85.09
64080;BME280;51042;49.696;10.808;2023-07-31T05:37:37;98259.22;;;17.13;84.39
64080;BME280;51042;49.696;10.808;2023-07-31T05:40:02;98257.47;;;17.16;84.38
64080;BME280;51042;49.696;10.808;2023-07-31T05:42:27;98255.34;;;17.26;83.84
64080;BME280;51042;49.696;10.808;2023-07-31T05:44:52;98250.31;;;17.44;83.58
64080;BME280;51042;49.696;10.808;2023-07-31T05:47:17;98247.56;;;17.65;82.49
64080;BME280;51042;49.696;10.808;2023-07-31T05:49:43;98244.75;;;18.05;80.43
64080;BME280;51042;49.696;10.808;2023-07-31T05:52:09;98238.84;;;18.49;77.16
64080;BME280;51042;49.696;10.808;2023-07-31T05:54:34;98230.81;;;18.83;75.05
64080;BME280;51042;49.696;10.808;2023-07-31T05:56:59;98237.53;;;18.70;75.15
64080;BME280;51042;49.696;10.808;2023-07-31T05:59:24;98238.59;;;18.79;76.17
64080;BME280;51042;49.696;10.808;2023-07-31T06:01:49;98232.66;;;18.65;76.24
64080;BME280;51042;49.696;10.808;2023-07-31T06:04:15;98234.03;;;18.75;75.91
64080;BME280;51042;49.696;10.808;2023-07-31T06:06:40;98233.34;;;18.86;75.46
64080;BME280;51042;49.696;10.808;2023-07-31T06:09:05;98241.06;;;18.71;76.09
64080;BME280;51042;49.696;10.808;2023-07-31T06:11:30;98230.56;;;18.55;75.97
64080;BME280;51042;49.696;10.808;2023-07-31T06:13:56;98237.13;;;18.26;76.43
64080;BME280;51042;49.696;10.808;2023-07-31T06:16:21;98240.44;;;18.04;78.43
64080;BME280;51042;49.696;10.808;2023-07-31T06:18:46;98245.44;;;18.00;78.80
64080;BME280;51042;49.696;10.808;2023-07-31T06:21:11;98247.25;;;18.03;79.08
64080;BME280;51042;49.696;10.808;2023-07-31T06:23:37;98251.03;;;18.06;79.84
64080;BME280;51042;49.696;10.808;2023-07-31T06:26:02;98250.50;;;18.02;79.28
64080;BME280;51042;49.696;10.808;2023-07-31T06:28:30;98244.59;;;17.94;78.98
64080;BME280;51042;49.696;10.808;2023-07-31T06:30:56;98243.28;;;18.10;79.35
64080;BME280;51042;49.696;10.808;2023-07-31T06:33:21;98242.94;;;18.28;78.90
64080;BME280;51042;49.696;10.808;2023-07-31T06:35:47;98242.63;;;18.46;78.43
64080;BME280;51042;49.696;10.808;2023-07-31T06:38:12;98250.31;;;18.57;76.71
64080;BME280;51042;49.696;10.808;2023-07-31T06:40:37;98243.53;;;18.63;76.60
64080;BME280;51042;49.696;10.808;2023-07-31T06:43:02;98245.84;;;18.65;75.91
64080;BME280;51042;49.696;10.808;2023-07-31T06:45:33;98246.72;;;18.82;76.55
64080;BME280;51042;49.696;10.808;2023-07-31T06:47:58;98240.56;;;19.09;75.03
64080;BME280;51042;49.696;10.808;2023-07-31T06:50:26;98251.34;;;19.33;74.22
64080;BME280;51042;49.696;10.808;2023-07-31T06:52:51;98242.22;;;19.81;72.12
64080;BME280;51042;49.696;10.808;2023-07-31T06:55:17;98238.22;;;19.98;70.60
64080;BME280;51042;49.696;10.808;2023-07-31T06:57:47;98238.66;;;19.80;70.79
64080;BME280;51042;49.696;10.808;2023-07-31T07:00:12;98228.78;;;19.79;70.70
64080;BME280;51042;49.696;10.808;2023-07-31T07:02:38;98242.22;;;19.81;71.85
64080;BME280;51042;49.696;10.808;2023-07-31T07:05:03;98236.06;;;19.60;71.88
64080;BME280;51042;49.696;10.808;2023-07-31T07:07:28;98237.84;;;19.63;71.67
64080;BME280;51042;49.696;10.808;2023-07-31T07:09:53;98233.78;;;19.59;72.45
64080;BME280;51042;49.696;10.808;2023-07-31T07:12:19;98239.63;;;19.66;72.04
64080;BME280;51042;49.696;10.808;2023-07-31T07:14:44;98248.97;;;19.63;71.92
64080;BME280;51042;49.696;10.808;2023-07-31T07:17:11;98246.50;;;19.76;73.41
64080;BME280;51042;49.696;10.808;2023-07-31T07:19:36;98250.81;;;19.77;72.10
64080;BME280;51042;49.696;10.808;2023-07-31T07:22:01;98240.66;;;19.69;71.52
64080;BME280;51042;49.696;10.808;2023-07-31T07:24:27;98246.25;;;19.80;71.36
64080;BME280;51042;49.696;10.808;2023-07-31T07:26:52;98243.28;;;19.94;71.17
64080;BME280;51042;49.696;10.808;2023-07-31T07:29:17;98249.59;;;19.95;70.16
64080;BME280;51042;49.696;10.808;2023-07-31T07:31:42;98249.81;;;19.86;70.55
64080;BME280;51042;49.696;10.808;2023-07-31T07:34:07;98242.03;;;20.01;70.14
64080;BME280;51042;49.696;10.808;2023-07-31T07:36:32;98237.41;;;19.87;71.65
64080;BME280;51042;49.696;10.808;2023-07-31T07:38:58;98241.81;;;20.27;71.15
64080;BME280;51042;49.696;10.808;2023-07-31T07:41:23;98235.28;;;20.63;70.65
64080;BME280;51042;49.696;10.808;2023-07-31T07:43:48;98235.28;;;20.91;69.07
64080;BME280;51042;49.696;10.808;2023-07-31T07:46:13;98241.34;;;21.01;67.87
64080;BME280;51042;49.696;10.808;2023-07-31T07:48:39;98229.91;;;20.99;68.13
64080;BME280;51042;49.696;10.808;2023-07-31T07:51:04;98229.16;;;20.98;67.14
64080;BME280;51042;49.696;10.808;2023-07-31T07:53:29;98229.66;;;21.25;67.28
64080;BME280;51042;49.696;10.808;2023-07-31T07:55:54;98228.97;;;21.71;65.85
64080;BME280;51042;49.696;10.808;2023-07-31T07:58:20;98239.75;;;22.02;64.08
64080;BME280;51042;49.696;10.808;2023-07-31T08:00:49;98234.94;;;22.03;63.94
64080;BME280;51042;49.696;10.808;2023-07-31T08:03:15;98240.19;;;22.53;62.79
64080;BME280;51042;49.696;10.808;2023-07-31T08:05:41;98231.16;;;22.35;62.51
64080;BME280;51042;49.696;10.808;2023-07-31T08:08:07;98225.41;;;22.58;61.33
64080;BME280;51042;49.696;10.808;2023-07-31T08:10:32;98213.44;;;22.27;60.85
64080;BME280;51042;49.696;10.808;2023-07-31T08:12:57;98225.69;;;22.19;62.09
64080;BME280;51042;49.696;10.808;2023-07-31T08:15:22;98221.63;;;22.20;62.34
64080;BME280;51042;49.696;10.808;2023-07-31T08:17:47;98210.97;;;22.13;62.20
64080;BME280;51042;49.696;10.808;2023-07-31T08:20:13;98213.66;;;22.29;62.42
64080;BME280;51042;49.696;10.808;2023-07-31T08:22:39;98211.19;;;22.20;61.92
64080;BME280;51042;49.696;10.808;2023-07-31T08:25:04;98216.03;;;22.20;60.48
64080;BME280;51042;49.696;10.808;2023-07-31T08:27:29;98204.72;;;22.36;60.45
64080;BME280;51042;49.696;10.808;2023-07-31T08:29:54;98198.72;;;22.57;61.65
64080;BME280;51042;49.696;10.808;2023-07-31T08:32:20;98195.94;;;22.87;60.53
64080;BME280;51042;49.696;10.808;2023-07-31T08:34:45;98183.06;;;23.45;59.87
64080;BME280;51042;49.696;10.808;2023-07-31T08:37:10;98197.56;;;23.68;57.19
64080;BME280;51042;49.696;10.808;2023-07-31T08:39:36;98187.31;;;24.08;57.88
64080;BME280;51042;49.696;10.808;2023-07-31T08:42:07;98196.75;;;23.92;56.41
64080;BME280;51042;49.696;10.808;2023-07-31T08:44:32;98195.22;;;24.10;56.67
64080;BME280;51042;49.696;10.808;2023-07-31T08:46:59;98195.63;;;24.51;56.13
64080;BME280;51042;49.696;10.808;2023-07-31T08:49:25;98184.25;;;23.93;55.92
64080;BME280;51042;49.696;10.808;2023-07-31T08:51:50;98194.41;;;23.34;57.07
64080;BME280;51042;49.696;10.808;2023-07-31T08:54:17;98197.09;;;22.97;58.36
64080;BME280;51042;49.696;10.808;2023-07-31T08:56:42;98191.03;;;22.63;59.76
64080;BME280;51042;49.696;10.808;2023-07-31T08:59:07;98188.16;;;22.74;60.31
64080;BME280;51042;49.696;10.808;2023-07-31T09:01:35;98194.19;;;23.08;59.87
64080;BME280;51042;49.696;10.808;2023-07-31T09:04:01;98188.25;;;23.79;57.83
64080;BME280;51042;49.696;10.808;2023-07-31T09:06:26;98175.91;;;23.87;57.52
64080;BME280;51042;49.696;10.808;2023-07-31T09:08:53;98185.88;;;24.01;56.55
64080;BME280;51042;49.696;10.808;2023-07-31T09:11:18;98176.94;;;24.03;56.11
64080;BME280;51042;49.696;10.808;2023-07-31T09:13:43;98180.75;;;23.87;56.70
64080;BME280;51042;49.696;10.808;2023-07-31T09:16:10;98172.19;;;23.60;57.19
64080;BME280;51042;49.696;10.808;2023-07-31T09:18:54;98176.03;;;23.14;58.37
64080;BME280;51042;49.696;10.808;2023-07-31T09:21:23;98182.69;;;23.11;58.00
64080;BME280;51042;49.696;10.808;2023-07-31T09:23:49;98184.91;;;23.18;57.94
64080;BME280;51042;49.696;10.808;2023-07-31T09:26:36;98186.13;;;23.85;57.76
64080;BME280;51042;49.696;10.808;2023-07-31T09:29:03;98168.19;;;24.44;55.42
64080;BME280;51042;49.696;10.808;2023-07-31T09:31:47;98175.22;;;24.51;55.91
64080;BME280;51042;49.696;10.808;2023-07-31T09:34:12;98179.44;;;24.89;55.68
64080;BME280;51042;49.696;10.808;2023-07-31T09:39:08;98181.34;;;24.17;54.94
64080;BME280;51042;49.696;10.808;2023-07-31T09:41:36;98166.59;;;23.98;56.16
64080;BME280;51042;49.696;10.808;2023-07-31T09:44:01;98165.38;;;23.56;56.37
64080;BME280;51042;49.696;10.808;2023-07-31T09:46:26;98164.00;;;23.19;57.12
64080;BME280;51042;49.696;10.808;2023-07-31T09:48:52;98158.16;;;22.99;58.50
64080;BME280;51042;49.696;10.808;2023-07-31T09:51:17;98160.31;;;22.87;58.91
64080;BME280;51042;49.696;10.808;2023-07-31T09:53:50;98157.38;;;22.74;58.53
64080;BME280;51042;49.696;10.808;2023-07-31T09:56:15;98155.22;;;22.86;58.69
64080;BME280;51042;49.696;10.808;2023-07-31T09:58:42;98147.94;;;22.77;58.81
64080;BME280;51042;49.696;10.808;2023-07-31T10:01:07;98141.50;;;22.82;58.90
64080;BME280;51042;49.696;10.808;2023-07-31T10:03:32;98137.91;;;23.11;57.39
64080;BME280;51042;49.696;10.808;2023-07-31T10:05:58;98139.66;;;23.57;56.77
64080;BME280;51042;49.696;10.808;2023-07-31T10:08:27;98135.31;;;23.94;54.53
64080;BME280;51042;49.696;10.808;2023-07-31T10:10:54;98118.75;;;24.09;54.11
64080;BME280;51042;49.696;10.808;2023-07-31T10:13:23;98127.94;;;24.42;53.75
64080;BME280;51042;49.696;10.808;2023-07-31T10:15:48;98121.94;;;24.64;54.13
64080;BME280;51042;49.696;10.808;2023-07-31T10:18:14;98112.03;;;25.15;51.63
64080;BME280;51042;49.696;10.808;2023-07-31T10:20:40;98107.44;;;25.65;52.01
64080;BME280;51042;49.696;10.808;2023-07-31T10:23:05;98117.16;;;25.64;51.42
64080;BME280;51042;49.696;10.808;2023-07-31T10:25:31;98122.13;;;25.45;50.81
64080;BME280;51042;49.696;10.808;2023-07-31T10:27:57;98110.25;;;25.39;50.96
64080;BME280;51042;49.696;10.808;2023-07-31T10:30:25;98110.31;;;24.99;51.79
64080;BME280;51042;49.696;10.808;2023-07-31T10:32:51;98104.16;;;25.01;51.15
64080;BME280;51042;49.696;10.808;2023-07-31T10:35:18;98091.19;;;24.85;51.87
64080;BME280;51042;49.696;10.808;2023-07-31T10:37:43;98090.63;;;24.73;52.04
64080;BME280;51042;49.696;10.808;2023-07-31T10:40:10;98092.03;;;24.66;52.09
64080;BME280;51042;49.696;10.808;2023-07-31T10:42:37;98087.16;;;24.80;52.26
64080;BME280;51042;49.696;10.808;2023-07-31T10:45:05;98087.50;;;24.63;52.85
64080;BME280;51042;49.696;10.808;2023-07-31T10:47:31;98088.03;;;25.14;52.72
64080;BME280;51042;49.696;10.808;2023-07-31T10:50:10;98095.28;;;25.70;50.69
64080;BME280;51042;49.696;10.808;2023-07-31T10:52:36;98084.44;;;26.29;49.44
64080;BME280;51042;49.696;10.808;2023-07-31T10:57:47;98084.44;;;26.50;47.74
64080;BME280;51042;49.696;10.808;2023-07-31T11:02:43;98083.78;;;26.64;47.63
64080;BME280;51042;49.696;10.808;2023-07-31T11:05:20;98083.06;;;26.43;47.63
64080;BME280;51042;49.696;10.808;2023-07-31T11:07:48;98071.78;;;26.22;49.33
64080;BME280;51042;49.696;10.808;2023-07-31T11:10:15;98077.22;;;25.99;48.81
64080;BME280;51042;49.696;10.808;2023-07-31T11:12:41;98077.75;;;25.77;49.40
64080;BME280;51042;49.696;10.808;2023-07-31T11:15:06;98075.44;;;25.55;50.66
64080;BME280;51042;49.696;10.808;2023-07-31T11:17:31;98076.53;;;25.39;51.13
64080;BME280;51042;49.696;10.808;2023-07-31T11:19:56;98078.69;;;25.59;50.91
64080;BME280;51042;49.696;10.808;2023-07-31T11:22:22;98066.72;;;25.79;48.41
64080;BME280;51042;49.696;10.808;2023-07-31T11:24:47;98066.78;;;25.66;49.03
64080;BME280;51042;49.696;10.808;2023-07-31T11:27:12;98065.94;;;25.45;50.16
64080;BME280;51042;49.696;10.808;2023-07-31T11:29:37;98059.50;;;25.37;50.52
64080;BME280;51042;49.696;10.808;2023-07-31T11:32:02;98063.97;;;25.53;50.34
64080;BME280;51042;49.696;10.808;2023-07-31T11:34:27;98073.09;;;25.33;50.07
64080;BME280;51042;49.696;10.808;2023-07-31T11:36:53;98075.56;;;25.49;50.65
64080;BME280;51042;49.696;10.808;2023-07-31T11:39:19;98073.81;;;25.59;50.77
64080;BME280;51042;49.696;10.808;2023-07-31T11:41:44;98071.88;;;25.88;49.31
64080;BME280;51042;49.696;10.808;2023-07-31T11:44:10;98065.34;;;26.14;49.60
64080;BME280;51042;49.696;10.808;2023-07-31T11:46:35;98058.63;;;26.95;48.17
64080;BME280;51042;49.696;10.808;2023-07-31T11:49:00;98065.25;;;26.76;46.68
64080;BME280;51042;49.696;10.808;2023-07-31T11:51:26;98053.09;;;26.81;46.75
64080;BME280;51042;49.696;10.808;2023-07-31T11:53:53;98054.97;;;26.79;46.93
64080;BME280;51042;49.696;10.808;2023-07-31T11:56:20;98051.50;;;26.65;47.02
64080;BME280;51042;49.696;10.808;2023-07-31T11:58:48;98050.66;;;26.50;47.87
64080;BME280;51042;49.696;10.808;2023-07-31T12:01:14;98065.97;;;26.41;47.74
64080;BME280;51042;49.696;10.808;2023-07-31T12:03:40;98054.25;;;26.09;48.57
64080;BME280;51042;49.696;10.808;2023-07-31T12:06:07;98061.44;;;26.17;49.34
64080;BME280;51042;49.696;10.808;2023-07-31T12:08:32;98062.00;;;25.95;49.08
64080;BME280;51042;49.696;10.808;2023-07-31T12:11:02;98051.19;;;25.31;50.60
64080;BME280;51042;49.696;10.808;2023-07-31T12:13:27;98062.63;;;25.33;50.60
64080;BME280;51042;49.696;10.808;2023-07-31T12:15:53;98057.59;;;25.18;50.99
64080;BME280;51042;49.696;10.808;2023-07-31T12:18:19;98040.28;;;25.14;50.86
64080;BME280;51042;49.696;10.808;2023-07-31T12:20:49;98043.53;;;25.18;50.79
64080;BME280;51042;49.696;10.808;2023-07-31T12:25:40;98034.34;;;25.18;49.94
64080;BME280;51042;49.696;10.808;2023-07-31T12:28:05;98033.09;;;25.06;50.18
64080;BME280;51042;49.696;10.808;2023-07-31T12:30:33;98022.72;;;25.48;49.68
64080;BME280;51042;49.696;10.808;2023-07-31T12:33:02;98020.97;;;25.99;48.83
64080;BME280;51042;49.696;10.808;2023-07-31T12:35:34;98009.94;;;25.47;50.16
64080;BME280;51042;49.696;10.808;2023-07-31T12:38:01;98011.38;;;25.40;50.93
64080;BME280;51042;49.696;10.808;2023-07-31T12:40:26;98011.88;;;25.52;50.95
64080;BME280;51042;49.696;10.808;2023-07-31T12:42:51;98019.19;;;25.89;50.67
64080;BME280;51042;49.696;10.808;2023-07-31T12:45:17;98011.16;;;26.14;49.12
64080;BME280;51042;49.696;10.808;2023-07-31T12:47:42;98007.38;;;26.32;48.90
64080;BME280;51042;49.696;10.808;2023-07-31T12:50:07;98015.91;;;26.47;48.21
64080;BME280;51042;49.696;10.808;2023-07-31T12:52:32;97999.13;;;26.62;48.33
64080;BME280;51042;49.696;10.808;2023-07-31T12:54:58;98001.28;;;25.99;49.30
64080;BME280;51042;49.696;10.808;2023-07-31T12:57:23;97989.88;;;26.05;48.84